Time;durP1;ratioP1;P1;durP2;ratioP2;P2;SDS_P1;SDS_P2;PMS_P1;PMS_P2;Temp;Humidity;BMP_temperature;BMP_pressure;BME280_temperature;BME280_humidity;BME280_pressure;Samples;Min_cycle;Max_cycle;Signal;HPM_P1;HPM_P2
2022/05/04 00:05:44;;;;;;;3.58;3.10;;;13.30;99.90;;;;;;4925668;29;20520;-86
2022/05/04 00:08:18;;;;;;;4.88;2.67;;;13.20;99.90;;;;;;4963533;28;20039;-86
2022/05/04 00:11:11;;;;;;;6.85;3.30;;;13.20;99.90;;;;;;4953740;28;20305;-86
2022/05/04 00:16:41;;;;;;;4.22;2.80;;;13.10;99.90;;;;;;4952251;28;20030;-87
2022/05/04 00:20:14;;;;;;;5.45;2.88;;;13.20;99.90;;;;;;4969590;28;20027;-88
2022/05/04 00:26:14;;;;;;;3.45;2.67;;;13.30;99.90;;;;;;4968634;28;20517;-87
2022/05/04 00:28:40;;;;;;;;;;;13.30;99.90;;;;;;4961472;28;20023;-88
2022/05/04 00:31:07;;;;;;;5.13;3.10;;;13.30;99.90;;;;;;4970419;28;19916;-90
2022/05/04 00:34:01;;;;;;;4.82;3.00;;;13.20;99.90;;;;;;4966023;28;20058;-92
2022/05/04 00:37:19;;;;;;;2.83;2.63;;;13.20;99.90;;;;;;4949475;28;20067;-90
2022/05/04 00:43:29;;;;;;;5.50;2.60;;;13.10;99.90;;;;;;4928478;29;20043;-88
2022/05/04 00:49:26;;;;;;;3.45;3.15;;;13.00;99.90;;;;;;4913314;29;20079;-89
2022/05/04 00:51:58;;;;;;;3.30;2.90;;;12.90;99.90;;;;;;4950545;28;20039;-88
2022/05/04 00:54:41;;;;;;;3.42;2.88;;;12.90;99.90;;;;;;4967025;28;20113;-90
2022/05/04 01:00:55;;;;;;;;;;;;;;;;;;;;;
2022/05/04 01:07:37;;;;;;;5.45;3.17;;;12.80;99.90;;;;;;4922162;29;20086;-89
2022/05/04 01:13:46;;;;;;;3.55;2.90;;;12.90;99.90;;;;;;4872363;29;20056;-93
2022/05/04 01:16:27;;;;;;;4.38;3.15;;;12.90;99.90;;;;;;4851365;29;20033;-92
2022/05/04 01:19:37;;;;;;;5.00;2.60;;;12.90;99.90;;;;;;4872084;29;20165;-91
2022/05/04 01:22:04;;;;;;;3.20;2.90;;;12.90;99.90;;;;;;4875512;29;20040;-91
2022/05/04 01:24:33;;;;;;;3.45;2.88;;;12.90;99.90;;;;;;4902209;29;20052;-91
2022/05/04 01:26:59;;;;;;;3.35;2.80;;;12.80;99.90;;;;;;4919686;28;20081;-91
2022/05/04 01:29:31;;;;;;;4.72;2.83;;;12.70;99.90;;;;;;4978884;28;20054;-91
2022/05/04 01:32:07;;;;;;;3.22;2.53;;;12.60;99.90;;;;;;4984789;28;20076;-94
2022/05/04 01:34:35;;;;;;;2.75;2.50;;;12.60;99.90;;;;;;4987648;28;20038;-91
2022/05/04 01:37:09;;;;;;;3.72;2.80;;;12.50;99.90;;;;;;4989713;28;20161;-91
2022/05/04 01:39:40;;;;;;;7.25;3.20;;;12.40;99.90;;;;;;4990895;28;20061;-92
2022/05/04 01:42:31;;;;;;;5.18;2.70;;;12.40;99.90;;;;;;4991815;28;20086;-91
2022/05/04 01:45:05;;;;;;;4.05;2.28;;;12.30;99.90;;;;;;4994076;28;20440;-93
2022/05/04 01:47:42;;;;;;;;;;;;;;;;;;;;;
2022/05/04 01:50:11;;;;;;;5.63;2.78;;;12.20;99.90;;;;;;4993529;28;20033;-90
2022/05/04 01:52:40;;;;;;;6.10;2.78;;;12.20;99.90;;;;;;4990880;28;20092;-91
2022/05/04 01:55:27;;;;;;;3.90;2.80;;;12.20;99.90;;;;;;4973292;28;20737;-90
2022/05/04 01:58:11;;;;;;;4.10;2.78;;;12.10;99.90;;;;;;4983005;28;20501;-91
2022/05/04 02:00:44;;;;;;;3.60;2.95;;;12.10;99.90;;;;;;4989476;28;20022;-93
2022/05/04 02:03:16;;;;;;;6.75;3.50;;;12.10;99.90;;;;;;4990609;28;20070;-95
2022/05/04 02:13:25;;;;;;;4.18;3.38;;;12.00;99.90;;;;;;4970942;28;20051;-95
2022/05/04 02:15:51;;;;;;;5.15;3.22;;;12.10;99.90;;;;;;4952492;28;20089;-92
2022/05/04 02:18:16;;;;;;;4.32;3.38;;;12.10;99.90;;;;;;4948175;28;20085;-93
2022/05/04 02:20:42;;;;;;;6.32;3.20;;;12.10;99.90;;;;;;4955256;28;20035;-92
2022/05/04 02:23:09;;;;;;;4.03;3.25;;;12.20;99.90;;;;;;4963848;28;20023;-92
2022/05/04 02:25:34;;;;;;;4.40;3.05;;;12.20;99.90;;;;;;4948472;28;20074;-95
2022/05/04 02:28:00;;;;;;;9.98;3.25;;;12.30;99.90;;;;;;4947554;28;20499;-93
2022/05/04 02:30:26;;;;;;;4.95;3.40;;;12.40;99.90;;;;;;4946406;29;20024;-93
2022/05/04 02:32:51;;;;;;;5.38;3.30;;;12.50;99.90;;;;;;4951571;28;20051;-91
2022/05/04 02:38:01;;;;;;;3.25;2.92;;;12.60;99.90;;;;;;4941762;28;20035;-91
2022/05/04 02:40:27;;;;;;;4.38;2.40;;;12.60;99.90;;;;;;4942809;28;20032;-96
2022/05/04 02:42:54;;;;;;;5.32;2.72;;;12.60;99.90;;;;;;4940604;28;20030;-91
2022/05/04 02:45:20;;;;;;;4.43;2.92;;;12.70;99.90;;;;;;4937967;29;20056;-95
2022/05/04 02:47:45;;;;;;;7.30;2.72;;;12.70;99.90;;;;;;4953497;28;20463;-96
2022/05/04 02:50:11;;;;;;;3.13;2.63;;;12.70;99.90;;;;;;4957857;29;20030;-96
2022/05/04 02:52:37;;;;;;;5.38;2.55;;;12.80;99.90;;;;;;4946338;28;20031;-95
2022/05/04 02:55:04;;;;;;;5.65;2.58;;;12.70;99.90;;;;;;4943097;28;20106;-94
2022/05/04 02:57:29;;;;;;;3.85;2.50;;;12.70;99.90;;;;;;4949060;28;20020;-93
2022/05/04 02:59:55;;;;;;;5.47;2.72;;;12.70;99.90;;;;;;4944697;28;20023;-92
2022/05/04 03:02:27;;;;;;;12.90;2.78;;;12.70;99.90;;;;;;4937660;28;20102;-91
2022/05/04 03:05:05;;;;;;;3.53;2.58;;;12.60;99.90;;;;;;4946947;28;20062;-92
2022/05/04 03:07:31;;;;;;;6.53;2.58;;;12.60;99.90;;;;;;4941023;28;20028;-93
2022/05/04 03:09:58;;;;;;;4.85;2.80;;;12.60;99.90;;;;;;4939630;28;20042;-93
2022/05/04 03:12:24;;;;;;;3.33;2.45;;;12.60;99.90;;;;;;4949883;28;20051;-92
2022/05/04 03:14:50;;;;;;;4.82;2.78;;;12.60;99.90;;;;;;4950722;28;20035;-93
2022/05/04 03:17:17;;;;;;;4.03;2.85;;;12.60;99.90;;;;;;4948161;28;20509;-92
2022/05/04 03:19:44;;;;;;;5.15;2.70;;;12.60;99.90;;;;;;4948378;29;20028;-92
2022/05/04 03:22:10;;;;;;;5.18;2.97;;;12.50;99.90;;;;;;4947635;28;20090;-91
2022/05/04 03:24:36;;;;;;;3.13;2.80;;;12.50;99.90;;;;;;4943004;28;20038;-92
2022/05/04 03:27:02;;;;;;;4.07;2.50;;;12.40;99.90;;;;;;4953060;28;20035;-94
2022/05/04 03:29:29;;;;;;;4.20;2.70;;;12.30;99.90;;;;;;4954576;28;20032;-93
2022/05/04 03:31:54;;;;;;;6.68;3.05;;;12.20;99.90;;;;;;4931335;29;20146;-94
2022/05/04 03:34:20;;;;;;;3.97;2.70;;;12.20;99.90;;;;;;4951033;28;20110;-93
2022/05/04 03:36:46;;;;;;;4.63;3.00;;;12.20;99.90;;;;;;4947859;29;20073;-94
2022/05/04 03:39:12;;;;;;;4.28;3.05;;;12.10;99.90;;;;;;4948967;28;20027;-94
2022/05/04 03:41:40;;;;;;;3.63;2.80;;;12.10;99.90;;;;;;4961309;28;20036;-95
2022/05/04 03:44:06;;;;;;;4.13;2.90;;;12.10;99.90;;;;;;4940168;28;20036;-93
2022/05/04 03:46:49;;;;;;;5.45;2.80;;;12.00;99.90;;;;;;4946212;28;20444;-94
2022/05/04 03:49:16;;;;;;;;;;;11.90;99.90;;;;;;4953965;28;20038;-95
2022/05/04 03:51:42;;;;;;;5.00;2.70;;;11.90;99.90;;;;;;4950073;29;19911;-94
2022/05/04 03:54:09;;;;;;;7.88;3.17;;;11.90;99.90;;;;;;4948976;28;20509;-95
2022/05/04 03:56:35;;;;;;;4.80;2.85;;;11.90;99.90;;;;;;4945024;28;20475;-92
2022/05/04 03:59:02;;;;;;;3.30;2.90;;;11.90;99.90;;;;;;4941857;28;20051;-96
2022/05/04 04:01:27;;;;;;;6.38;3.40;;;11.90;99.90;;;;;;4945918;28;20586;-94
2022/05/04 04:03:53;;;;;;;3.78;2.95;;;11.90;99.90;;;;;;4943357;28;20114;-93
2022/05/04 04:06:19;;;;;;;4.43;3.10;;;11.90;99.90;;;;;;4943275;28;20035;-92
2022/05/04 04:08:45;;;;;;;5.75;3.20;;;11.90;99.90;;;;;;4931637;28;20467;-92
2022/05/04 04:11:10;;;;;;;4.47;3.35;;;11.90;99.90;;;;;;4927393;29;20028;-92
2022/05/04 04:13:37;;;;;;;13.48;2.95;;;11.90;99.90;;;;;;4948637;28;20027;-93
2022/05/04 04:16:03;;;;;;;5.57;3.15;;;11.90;99.90;;;;;;4945978;28;20101;-94
2022/05/04 04:18:29;;;;;;;3.97;2.97;;;11.90;99.90;;;;;;4945587;28;20038;-94
2022/05/04 04:23:40;;;;;;;6.53;3.30;;;11.90;99.90;;;;;;4948563;28;20094;-93
2022/05/04 04:26:07;;;;;;;4.07;3.15;;;12.00;99.90;;;;;;4944307;28;20126;-93
2022/05/04 04:28:34;;;;;;;3.78;3.10;;;12.10;99.90;;;;;;4929283;29;20089;-93
2022/05/04 04:31:01;;;;;;;10.38;3.47;;;12.10;99.90;;;;;;4948226;28;20023;-93
2022/05/04 04:33:27;;;;;;;5.00;3.15;;;12.20;99.90;;;;;;4945611;28;20139;-96
2022/05/04 04:35:53;;;;;;;4.53;3.17;;;12.20;99.90;;;;;;4945039;28;20118;-94
2022/05/04 04:38:19;;;;;;;5.22;2.72;;;12.30;99.90;;;;;;4945291;28;20633;-95
2022/05/04 04:40:45;;;;;;;4.53;2.50;;;12.40;99.90;;;;;;4945146;28;20051;-92
2022/05/04 04:43:11;;;;;;;3.40;2.92;;;12.50;99.90;;;;;;4943591;28;20402;-94
2022/05/04 04:45:37;;;;;;;4.32;2.92;;;12.60;99.90;;;;;;4943359;28;20091;-93
2022/05/04 04:48:03;;;;;;;3.33;2.75;;;12.50;99.90;;;;;;4945056;28;20019;-93
2022/05/04 04:50:28;;;;;;;4.47;3.05;;;12.60;99.90;;;;;;4942148;28;20118;-94
2022/05/04 04:52:54;;;;;;;3.85;3.03;;;12.70;99.90;;;;;;4927307;29;20061;-95
2022/05/04 04:55:20;;;;;;;7.57;3.05;;;12.70;99.90;;;;;;4948936;28;20066;-94
2022/05/04 04:57:46;;;;;;;24.90;2.92;;;12.80;99.90;;;;;;4945178;28;20106;-95
2022/05/04 05:00:12;;;;;;;5.90;2.90;;;12.90;99.90;;;;;;4961953;28;20029;-95
2022/05/04 05:02:37;;;;;;;4.68;2.80;;;13.00;99.90;;;;;;4936678;29;20031;-95
2022/05/04 05:05:04;;;;;;;3.40;2.65;;;13.10;99.90;;;;;;4955226;28;20479;-95
2022/05/04 05:07:30;;;;;;;6.35;2.70;;;13.20;99.90;;;;;;4949099;28;20477;-94
2022/05/04 05:09:56;;;;;;;3.95;2.95;;;13.30;99.90;;;;;;4929182;29;20020;-94
2022/05/04 05:12:22;;;;;;;3.00;2.65;;;13.30;99.90;;;;;;4925973;29;20524;-93
2022/05/04 05:17:34;;;;;;;6.68;2.70;;;13.50;99.90;;;;;;4942879;28;20502;-94
2022/05/04 05:20:00;;;;;;;5.15;2.60;;;13.50;99.90;;;;;;4948114;28;20039;-93
2022/05/04 05:22:26;;;;;;;7.63;2.83;;;13.60;99.90;;;;;;4930551;29;20028;-94
2022/05/04 05:24:52;;;;;;;4.45;2.70;;;13.60;99.90;;;;;;4943678;28;20087;-92
2022/05/04 05:27:18;;;;;;;3.67;2.90;;;13.60;99.90;;;;;;4926702;28;20079;-94
2022/05/04 05:29:43;;;;;;;4.97;3.10;;;13.70;99.90;;;;;;4937689;28;20479;-93
2022/05/04 05:32:09;;;;;;;6.15;3.28;;;13.70;99.90;;;;;;4942531;28;20066;-93
2022/05/04 05:34:35;;;;;;;6.13;2.75;;;13.80;99.90;;;;;;4938182;28;20390;-93
2022/05/04 05:37:01;;;;;;;5.28;3.10;;;13.80;99.90;;;;;;4949466;28;20089;-93
2022/05/04 05:39:27;;;;;;;12.98;5.78;;;13.90;99.90;;;;;;4953088;28;20219;-93
2022/05/04 05:41:53;;;;;;;15.48;6.45;;;14.00;99.90;;;;;;4933112;29;20031;-93
2022/05/04 05:44:19;;;;;;;8.30;5.60;;;14.20;99.90;;;;;;4934697;29;20511;-94
2022/05/04 05:46:44;;;;;;;5.93;3.42;;;14.30;99.90;;;;;;4933833;28;20080;-94
2022/05/04 05:49:10;;;;;;;2.92;2.50;;;14.50;99.90;;;;;;4946946;28;20027;-95
2022/05/04 05:51:36;;;;;;;5.90;2.83;;;14.50;99.90;;;;;;4937632;28;20059;-96
2022/05/04 05:54:01;;;;;;;5.30;2.88;;;14.70;99.90;;;;;;4952203;28;20031;-94
2022/05/04 05:56:27;;;;;;;4.15;2.60;;;14.80;99.90;;;;;;4929811;29;20032;-90
2022/05/04 05:58:53;;;;;;;6.13;3.25;;;14.90;99.90;;;;;;4946525;28;20140;-91
2022/05/04 06:01:27;;;;;;;5.63;3.03;;;15.00;99.90;;;;;;4947579;28;20038;-87
2022/05/04 06:03:53;;;;;;;8.80;2.92;;;15.10;99.90;;;;;;4934178;29;20027;-91
2022/05/04 06:06:19;;;;;;;11.38;2.97;;;15.20;99.90;;;;;;4951714;29;20409;-94
2022/05/04 06:08:44;;;;;;;7.88;3.00;;;15.30;99.90;;;;;;4925278;29;20032;-88
2022/05/04 06:11:10;;;;;;;5.05;3.03;;;15.40;99.90;;;;;;4933876;29;20086;-91
2022/05/04 06:13:36;;;;;;;7.15;2.80;;;15.50;99.90;;;;;;4941787;28;20047;-93
2022/05/04 06:16:01;;;;;;;11.43;3.08;;;15.70;99.90;;;;;;4925770;29;20039;-93
2022/05/04 06:18:27;;;;;;;9.50;3.10;;;15.80;99.90;;;;;;4929037;29;20034;-90
2022/05/04 06:20:53;;;;;;;13.90;3.25;;;16.00;99.90;;;;;;4944751;28;20029;-92
2022/05/04 06:23:22;;;;;;;6.70;3.15;;;16.10;99.90;;;;;;4927354;29;20402;-91
2022/05/04 06:25:47;;;;;;;10.23;2.80;;;16.20;99.90;;;;;;4942040;28;20077;-92
2022/05/04 06:28:13;;;;;;;9.40;3.38;;;16.30;99.90;;;;;;4944886;28;20390;-93
2022/05/04 06:36:07;;;;;;;13.55;4.07;;;16.50;99.90;;;;;;4949369;28;20301;-92
2022/05/04 06:38:33;;;;;;;11.02;3.22;;;16.60;99.90;;;;;;4926392;29;20490;-92
2022/05/04 06:41:00;;;;;;;5.38;3.35;;;16.70;99.90;;;;;;4943390;28;20068;-92
2022/05/04 06:43:26;;;;;;;6.00;3.47;;;16.80;99.90;;;;;;4944924;29;20019;-92
2022/05/04 06:45:52;;;;;;;4.57;3.60;;;16.90;99.90;;;;;;4932593;29;20040;-92
2022/05/04 06:48:17;;;;;;;4.28;2.92;;;17.10;99.90;;;;;;4930307;29;20035;-92
2022/05/04 06:50:43;;;;;;;4.70;3.03;;;17.20;99.90;;;;;;4951487;28;20031;-92
2022/05/04 06:53:09;;;;;;;6.80;2.60;;;17.30;99.90;;;;;;4929667;29;20039;-92
2022/05/04 06:55:35;;;;;;;5.47;2.70;;;17.40;99.90;;;;;;4934421;29;20509;-92
2022/05/04 06:58:00;;;;;;;10.57;2.95;;;17.50;99.90;;;;;;4927399;29;20031;-92
2022/05/04 07:00:26;;;;;;;3.92;2.50;;;17.60;99.90;;;;;;4931703;29;20106;-91
2022/05/04 07:02:52;;;;;;;6.93;2.55;;;17.70;99.90;;;;;;4946098;28;20119;-92
2022/05/04 07:05:17;;;;;;;3.55;2.67;;;17.80;99.90;;;;;;4925051;29;20039;-91
2022/05/04 07:07:43;;;;;;;5.85;2.35;;;17.90;99.40;;;;;;4945984;28;20471;-91
2022/05/04 07:10:09;;;;;;;5.13;2.58;;;17.90;99.90;;;;;;4927654;29;20039;-92
2022/05/04 07:12:35;;;;;;;5.80;2.80;;;18.00;99.90;;;;;;4929176;29;20208;-92
2022/05/04 07:15:00;;;;;;;8.60;2.90;;;18.10;99.90;;;;;;4950299;28;20498;-91
2022/05/04 07:17:27;;;;;;;8.95;2.90;;;18.20;99.90;;;;;;4946536;28;20110;-91
2022/05/04 07:19:53;;;;;;;7.80;3.22;;;18.20;99.90;;;;;;4947183;28;20019;-91
2022/05/04 07:22:21;;;;;;;4.90;3.53;;;18.30;99.90;;;;;;4945620;28;20558;-94
2022/05/04 07:24:47;;;;;;;5.57;2.90;;;18.30;99.90;;;;;;4944396;28;20027;-92
2022/05/04 07:27:12;;;;;;;4.80;3.13;;;18.20;99.90;;;;;;4944753;28;20035;-92
2022/05/04 07:29:38;;;;;;;4.45;2.88;;;18.30;99.90;;;;;;4951012;28;20054;-94
2022/05/04 07:32:04;;;;;;;9.55;3.20;;;18.40;99.90;;;;;;4945164;28;20023;-93
2022/05/04 07:34:30;;;;;;;4.63;3.13;;;18.40;99.90;;;;;;4947546;28;20031;-91
2022/05/04 07:36:57;;;;;;;8.23;3.10;;;18.50;99.90;;;;;;4946652;28;20380;-91
2022/05/04 07:42:22;;;;;;;4.95;3.17;;;18.60;99.90;;;;;;4948118;28;20093;-93
2022/05/04 07:44:57;;;;;;;5.05;3.63;;;18.70;99.90;;;;;;4932828;28;20027;-92
2022/05/04 07:47:22;;;;;;;10.55;3.72;;;18.80;99.90;;;;;;4929271;29;20035;-94
2022/05/04 07:49:48;;;;;;;8.13;3.30;;;18.80;99.90;;;;;;4931789;28;20634;-91
2022/05/04 07:52:14;;;;;;;10.43;3.45;;;18.70;99.90;;;;;;4929975;28;20118;-91
2022/05/04 07:54:40;;;;;;;5.65;3.00;;;18.80;99.90;;;;;;4941980;28;20023;-91
2022/05/04 07:57:05;;;;;;;12.75;3.75;;;18.90;99.90;;;;;;4943256;28;20399;-91
2022/05/04 07:59:32;;;;;;;13.93;3.50;;;18.90;99.90;;;;;;4945077;29;20106;-90
2022/05/04 08:04:42;;;;;;;8.23;3.15;;;18.90;99.90;;;;;;4946803;28;20623;-90
2022/05/04 08:07:07;;;;;;;6.03;3.28;;;18.80;99.90;;;;;;4951147;28;20126;-92
2022/05/04 08:09:36;;;;;;;11.88;3.42;;;18.60;99.90;;;;;;4945046;28;20383;-92
2022/05/04 08:12:06;;;;;;;11.65;3.70;;;18.70;99.90;;;;;;4932309;28;20190;-91
2022/05/04 08:14:41;;;;;;;5.85;3.60;;;18.70;99.90;;;;;;4953021;28;20106;-91
2022/05/04 08:17:07;;;;;;;6.43;3.60;;;18.70;99.90;;;;;;4950912;28;20026;-91
2022/05/04 08:19:33;;;;;;;8.27;3.60;;;18.60;99.90;;;;;;4941247;29;20027;-91
2022/05/04 08:21:59;;;;;;;7.25;3.90;;;18.50;99.90;;;;;;4959831;28;20031;-89
2022/05/04 08:24:25;;;;;;;8.23;3.83;;;18.60;99.90;;;;;;4962364;28;20390;-89
2022/05/04 08:26:51;;;;;;;5.80;4.10;;;18.60;99.90;;;;;;4960819;28;20055;-90
2022/05/04 08:29:17;;;;;;;7.18;4.18;;;18.50;99.90;;;;;;4960982;29;20031;-91
2022/05/04 08:31:43;;;;;;;5.47;3.90;;;18.50;99.90;;;;;;4962057;28;20031;-90
2022/05/04 08:34:09;;;;;;;6.38;3.97;;;18.50;99.90;;;;;;4972280;28;20093;-90
2022/05/04 08:36:37;;;;;;;9.57;4.10;;;18.50;99.90;;;;;;4952238;28;20027;-92
2022/05/04 08:39:07;;;;;;;5.72;3.78;;;18.60;99.90;;;;;;4962517;28;20027;-91
2022/05/04 08:41:41;;;;;;;5.57;4.35;;;18.50;99.90;;;;;;4953240;29;20035;-91
2022/05/04 08:44:08;;;;;;;9.38;4.75;;;18.40;99.90;;;;;;4952052;28;20031;-92
2022/05/04 08:46:41;;;;;;;6.88;4.32;;;18.50;99.90;;;;;;4934876;29;20442;-93
2022/05/04 08:49:07;;;;;;;;;;;18.60;99.90;;;;;;4948862;28;20019;-90
2022/05/04 08:51:35;;;;;;;4.38;3.97;;;18.80;99.90;;;;;;4941796;28;19934;-94
2022/05/04 08:54:01;;;;;;;6.90;4.00;;;18.70;99.90;;;;;;4946692;28;20020;-91
2022/05/04 08:56:27;;;;;;;10.13;4.47;;;18.80;99.90;;;;;;4945427;28;20082;-89
2022/05/04 08:58:52;;;;;;;4.20;3.70;;;18.80;99.90;;;;;;4944864;29;20039;-92
2022/05/04 09:01:18;;;;;;;6.43;4.93;;;18.90;99.90;;;;;;4951012;28;20783;-86
2022/05/04 09:03:44;;;;;;;5.97;4.68;;;19.00;99.90;;;;;;4946737;28;20019;-91
2022/05/04 09:06:09;;;;;;;5.78;4.63;;;18.90;99.90;;;;;;4949514;28;20411;-94
2022/05/04 09:08:59;;;;;;;6.57;4.40;;;18.80;99.90;;;;;;4942203;28;20078;-95
2022/05/04 09:11:25;;;;;;;9.80;5.32;;;18.80;99.90;;;;;;4950369;28;20135;-92
2022/05/04 09:13:52;;;;;;;7.72;4.53;;;18.80;99.90;;;;;;4947490;28;20019;-89
2022/05/04 09:16:28;;;;;;;6.18;5.05;;;18.60;99.90;;;;;;4945177;28;20027;-91
2022/05/04 09:18:58;;;;;;;8.50;4.78;;;18.60;99.90;;;;;;4949100;28;20505;-95
2022/05/04 09:21:26;;;;;;;6.13;5.38;;;18.70;99.90;;;;;;4951256;28;20030;-90
2022/05/04 09:23:53;;;;;;;11.23;4.95;;;18.60;99.90;;;;;;4945670;29;20023;-90
2022/05/04 09:26:20;;;;;;;8.25;4.90;;;18.50;99.90;;;;;;4945949;28;20086;-88
2022/05/04 09:28:50;;;;;;;5.80;5.30;;;18.50;99.90;;;;;;4932035;29;20027;-94
2022/05/04 09:31:18;;;;;;;7.63;5.50;;;18.40;99.90;;;;;;4945216;28;20035;-92
2022/05/04 09:33:51;;;;;;;10.88;5.50;;;18.50;99.90;;;;;;4950286;28;20015;-92
2022/05/04 09:36:28;;;;;;;8.90;5.80;;;18.50;99.90;;;;;;4945215;28;20546;-90
2022/05/04 09:47:18;;;;;;;6.28;5.53;;;18.80;99.90;;;;;;4949552;28;20051;-91
2022/05/04 09:49:48;;;;;;;6.32;5.30;;;18.90;99.90;;;;;;4933649;28;20129;-92
2022/05/04 09:52:24;;;;;;;13.45;5.57;;;18.90;99.90;;;;;;4949703;28;20106;-91
2022/05/04 09:54:52;;;;;;;5.57;4.97;;;18.90;99.90;;;;;;4944559;28;20063;-91
2022/05/04 09:57:20;;;;;;;7.80;5.65;;;18.90;99.90;;;;;;4941229;28;20019;-93
2022/05/04 09:59:47;;;;;;;7.78;5.05;;;19.00;99.90;;;;;;4936585;28;20034;-93
2022/05/04 10:02:13;;;;;;;9.55;5.57;;;19.00;99.90;;;;;;4950241;28;20029;-95
2022/05/04 10:04:43;;;;;;;7.65;5.28;;;18.90;99.90;;;;;;4958895;28;20031;-94
2022/05/04 10:07:10;;;;;;;8.23;5.25;;;18.90;99.90;;;;;;4932042;28;20039;-90
2022/05/04 10:09:36;;;;;;;5.75;4.75;;;19.00;99.90;;;;;;4951722;28;20110;-88
2022/05/04 10:12:03;;;;;;;5.88;4.82;;;19.00;99.90;;;;;;4946426;28;20138;-88
2022/05/04 10:14:32;;;;;;;7.88;5.65;;;19.00;99.90;;;;;;4948971;28;20023;-94
2022/05/04 10:17:12;;;;;;;9.45;5.07;;;19.00;99.90;;;;;;4950670;28;20031;-89
2022/05/04 10:19:52;;;;;;;8.85;5.65;;;18.90;99.90;;;;;;4950926;28;20039;-90
2022/05/04 10:22:26;;;;;;;7.50;5.18;;;19.00;99.90;;;;;;4955802;28;20031;-96
2022/05/04 10:24:56;;;;;;;8.70;4.75;;;19.00;99.90;;;;;;4930077;29;20181;-94
2022/05/04 10:27:23;;;;;;;8.27;5.07;;;18.90;99.90;;;;;;4941057;29;20099;-93
2022/05/04 10:32:49;;;;;;;9.63;5.30;;;19.10;99.90;;;;;;4953706;28;20050;-89
2022/05/04 10:35:20;;;;;;;7.70;5.28;;;19.20;99.90;;;;;;4948410;28;20028;-88
2022/05/04 10:37:58;;;;;;;7.13;5.32;;;19.30;99.90;;;;;;4947512;28;20041;-85
2022/05/04 10:40:34;;;;;;;7.53;5.25;;;19.10;99.90;;;;;;4950908;28;20035;-88
2022/05/04 10:43:03;;;;;;;14.70;5.85;;;19.20;99.90;;;;;;4947847;28;20023;-88
2022/05/04 10:45:34;;;;;;;14.57;5.72;;;19.40;99.90;;;;;;4948910;28;20506;-91
2022/05/04 10:48:13;;;;;;;7.90;5.95;;;19.30;99.90;;;;;;4950333;28;20024;-90
2022/05/04 10:51:02;;;;;;;10.55;6.15;;;19.30;99.90;;;;;;4932988;29;20028;-94
2022/05/04 10:53:28;;;;;;;7.20;5.88;;;19.20;99.90;;;;;;4947682;28;20401;-86
2022/05/04 10:56:00;;;;;;;8.85;5.90;;;19.20;99.90;;;;;;4949445;28;20497;-88
2022/05/04 10:58:37;;;;;;;14.00;4.60;;;19.20;99.90;;;;;;4944863;28;20059;-92
2022/05/04 11:01:02;;;;;;;6.90;5.63;;;19.10;99.90;;;;;;4953730;28;20023;-92
2022/05/04 11:03:35;;;;;;;12.10;6.15;;;19.30;99.90;;;;;;4949294;28;20031;-89
2022/05/04 11:06:21;;;;;;;7.55;4.03;;;19.30;99.90;;;;;;4952323;28;20034;-89
2022/05/04 11:08:48;;;;;;;6.03;4.22;;;19.30;99.90;;;;;;4939836;28;20043;-87
2022/05/04 11:11:14;;;;;;;8.85;4.90;;;19.30;99.90;;;;;;4938383;29;20434;-88
2022/05/04 11:13:43;;;;;;;7.50;3.95;;;19.60;99.90;;;;;;4942191;28;20038;-86
2022/05/04 11:16:09;;;;;;;5.40;3.92;;;19.70;99.90;;;;;;4948547;28;20636;-92
2022/05/04 11:18:35;;;;;;;7.10;4.65;;;19.80;99.90;;;;;;4943293;28;20023;-87
2022/05/04 11:21:05;;;;;;;9.80;3.35;;;20.10;99.90;;;;;;4937702;29;20094;-93
2022/05/04 11:23:31;;;;;;;4.65;2.90;;;20.10;99.90;;;;;;4933052;29;20019;-93
2022/05/04 11:25:57;;;;;;;8.15;3.30;;;20.10;99.90;;;;;;4950071;28;20061;-88
2022/05/04 11:28:24;;;;;;;7.28;2.70;;;20.10;99.90;;;;;;4933687;29;20390;-91
2022/05/04 11:30:52;;;;;;;9.15;3.97;;;20.00;99.90;;;;;;4951147;28;20024;-90
2022/05/04 11:33:21;;;;;;;8.70;3.10;;;20.10;99.90;;;;;;4951057;28;20031;-92
2022/05/04 11:35:57;;;;;;;7.13;3.10;;;20.40;99.90;;;;;;4934774;29;20122;-95
2022/05/04 11:38:23;;;;;;;11.82;3.28;;;20.60;99.90;;;;;;4949240;28;20116;-91
2022/05/04 11:40:50;;;;;;;7.50;3.20;;;20.50;99.50;;;;;;4922842;29;20118;-88
2022/05/04 11:43:42;;;;;;;5.25;3.33;;;20.30;99.90;;;;;;4945824;28;20035;-89
2022/05/04 11:46:10;;;;;;;4.43;3.15;;;20.30;99.90;;;;;;4948653;28;20054;-90
2022/05/04 11:48:47;;;;;;;5.85;2.83;;;20.50;99.90;;;;;;4947315;28;20486;-90
2022/05/04 11:51:15;;;;;;;6.88;3.72;;;20.60;99.90;;;;;;4957004;28;20102;-90
2022/05/04 11:53:45;;;;;;;13.65;3.95;;;20.50;99.90;;;;;;4930016;29;20028;-88
2022/05/04 11:56:11;;;;;;;4.22;2.95;;;20.50;99.90;;;;;;4947596;28;20039;-91
2022/05/04 11:58:42;;;;;;;3.78;3.30;;;20.70;99.90;;;;;;4946942;28;20030;-89
2022/05/04 12:01:08;;;;;;;7.15;3.60;;;20.80;99.90;;;;;;4944977;28;20031;-90
2022/05/04 12:03:38;;;;;;;5.25;3.30;;;22.40;99.90;;;;;;4951415;28;20035;-88
2022/05/04 12:06:06;;;;;;;7.80;3.53;;;25.10;99.90;;;;;;4947354;28;20067;-89
2022/05/04 12:08:32;;;;;;;7.60;3.30;;;26.30;99.10;;;;;;4943503;28;20479;-91
2022/05/04 12:10:59;;;;;;;4.85;3.50;;;26.30;96.30;;;;;;4944483;28;20034;-89
2022/05/04 12:13:26;;;;;;;8.52;3.85;;;26.60;96.10;;;;;;4941376;28;20051;-90
2022/05/04 12:15:58;;;;;;;5.43;4.22;;;27.50;98.00;;;;;;4943766;28;20023;-90
2022/05/04 12:18:32;;;;;;;;;;;28.10;99.60;;;;;;4947755;28;20423;-89
2022/05/04 12:21:13;;;;;;;11.80;5.10;;;28.40;99.90;;;;;;4930738;29;19917;-92
2022/05/04 12:23:42;;;;;;;6.28;4.82;;;27.70;99.90;;;;;;4939951;28;20031;-90
2022/05/04 12:26:10;;;;;;;7.63;4.28;;;28.00;99.90;;;;;;4945614;28;20090;-89
2022/05/04 12:28:41;;;;;;;23.50;5.03;;;28.80;93.20;;;;;;4949621;28;20054;-93
2022/05/04 12:33:58;;;;;;;7.28;3.92;;;28.90;91.00;;;;;;4961444;28;20046;-91
2022/05/04 12:36:24;;;;;;;8.80;4.60;;;29.70;89.50;;;;;;4969638;28;20019;-89
2022/05/04 12:38:52;;;;;;;5.32;4.10;;;29.60;90.00;;;;;;4970384;28;20023;-91
2022/05/04 12:41:24;;;;;;;7.07;4.85;;;29.80;87.70;;;;;;4962430;28;20078;-89
2022/05/04 12:43:51;;;;;;;6.25;4.25;;;30.60;90.00;;;;;;4964988;28;20055;-90
2022/05/04 12:46:19;;;;;;;10.75;4.63;;;32.00;90.70;;;;;;4958444;28;20098;-89
2022/05/04 12:48:47;;;;;;;7.28;4.30;;;31.90;87.10;;;;;;4960971;28;20069;-89
2022/05/04 12:51:16;;;;;;;5.70;3.85;;;31.30;77.00;;;;;;4952634;28;20027;-89
2022/05/04 12:53:44;;;;;;;8.57;4.57;;;31.80;77.30;;;;;;4957656;28;20558;-91
2022/05/04 12:58:54;;;;;;;7.65;4.15;;;33.30;77.60;;;;;;4959122;28;20041;-91
2022/05/04 13:01:24;;;;;;;7.30;4.80;;;32.70;74.10;;;;;;4958766;28;20410;-91
2022/05/04 13:03:51;;;;;;;10.63;4.88;;;32.50;77.30;;;;;;4957626;28;20054;-90
2022/05/04 13:06:20;;;;;;;14.52;4.85;;;33.70;73.90;;;;;;4957213;28;20043;-90
2022/05/04 13:08:48;;;;;;;6.53;5.03;;;33.00;72.70;;;;;;4956192;28;20058;-88
2022/05/04 13:11:19;;;;;;;7.80;4.30;;;32.10;70.60;;;;;;4949268;28;20035;-91
2022/05/04 13:13:45;;;;;;;7.88;4.57;;;31.70;74.90;;;;;;4947525;28;20037;-91
2022/05/04 13:16:11;;;;;;;7.55;4.70;;;32.10;71.20;;;;;;4946187;28;20024;-88
2022/05/04 13:18:38;;;;;;;6.65;4.75;;;31.70;70.40;;;;;;4942887;28;20027;-87
2022/05/04 13:21:05;;;;;;;8.35;4.93;;;32.50;67.10;;;;;;4946706;28;20387;-90
2022/05/04 13:23:31;;;;;;;11.23;4.97;;;32.30;67.10;;;;;;4945728;28;20030;-90
2022/05/04 13:25:57;;;;;;;7.78;5.15;;;32.70;65.90;;;;;;4926300;29;20502;-92
2022/05/04 13:28:23;;;;;;;11.20;5.50;;;33.60;65.50;;;;;;4945833;29;20081;-91
2022/05/04 13:30:49;;;;;;;7.32;4.43;;;33.30;65.70;;;;;;4928489;28;20689;-90
2022/05/04 13:33:15;;;;;;;8.60;5.10;;;33.50;59.60;;;;;;4947413;28;20608;-91
2022/05/04 13:35:41;;;;;;;8.00;6.07;;;32.40;66.30;;;;;;4950013;28;20122;-88
2022/05/04 13:38:10;;;;;;;11.23;5.97;;;32.00;65.70;;;;;;4934328;28;20388;-91
2022/05/04 13:40:36;;;;;;;10.73;6.78;;;31.30;65.90;;;;;;4948226;28;20114;-94
2022/05/04 13:43:05;;;;;;;15.50;8.25;;;30.30;69.20;;;;;;4946294;28;20059;-90
2022/05/04 13:45:33;;;;;;;14.88;8.05;;;30.10;72.20;;;;;;4936554;29;20058;-92
2022/05/04 13:47:59;;;;;;;13.55;7.65;;;30.70;72.40;;;;;;4949869;28;20031;-89
2022/05/04 13:53:15;;;;;;;13.60;7.90;;;30.20;67.60;;;;;;4941098;28;20549;-95
2022/05/04 13:55:49;;;;;;;13.50;8.43;;;30.10;71.40;;;;;;4944782;28;20402;-91
2022/05/04 13:58:16;;;;;;;11.43;7.28;;;31.00;72.00;;;;;;4925702;29;20058;-91
2022/05/04 14:00:43;;;;;;;15.77;8.30;;;32.00;69.10;;;;;;4941075;28;20035;-93
2022/05/04 14:03:09;;;;;;;14.48;7.63;;;32.10;68.50;;;;;;4933475;29;20031;-88
2022/05/04 14:05:35;;;;;;;16.30;6.72;;;31.70;71.20;;;;;;4939045;29;20101;-89
2022/05/04 14:08:01;;;;;;;10.23;6.60;;;31.50;71.20;;;;;;4940562;28;20526;-91
2022/05/04 14:10:28;;;;;;;9.88;7.03;;;31.40;71.00;;;;;;4949056;28;20114;-92
2022/05/04 14:12:54;;;;;;;9.48;6.50;;;30.60;71.10;;;;;;4926953;28;20083;-89